Portada
METAR-TAF:

METAR-TAF

Aeroports :

Cayo Largo del Sur, Cuba

latitud: 21-37N, longitud: 081-33W, altitud: 2 m

Observació

L'informe es va fer fa 48 minuts, a les 11:05 UTC
Vent 4 kt del Est, variant entre Nord/Nord-Est i Sud-Est
Temperatura 25°C
Humitat 89%
Pressió 1015 hPa

METAR: MUCL 051105Z AUTO 08004KT 020V140 25/23 Q1015

Hora: 06:53 (11:53 UTC)

Pronòstic

L'informe es va fer fa 53 minuts, a les 11:00 UTC
Pronòstic vàlid del 05 a les 12 UTC al 05 a les 24 UTC
Vent 10 kt del Est
Visibilitat: 9000 m
Núvols disperses a una alçada de 2000 ft
Temporalment
l' 05 a les 14 UTC al 05 a les 24 UTC
Visibilitat: 5000 m
Núvols disperses a una alçada de 1800 ft, Cumulonimbus.
Cel ennuvolat a una alçada de 2000 ft
xàfecs de pluja

TAF: MUCL 051100Z 0512/0524 10010KT 9000 SCT020 TEMPO 0514/0524 5000 SHRA SCT018CB BKN020

Observacions i pronòstics meteorològics de més de 4000 aeroports (METAR i TAF).

Les estacions disponibles són els punts grocs i vermells al mapa.

Posi el ratolí al punt desitjat per veure el nom de l'estació.

Feu clic per veure les observacions i els pronòstics meteorològics.

Per canviar el mapa: feu clic els botons verds amb una creu de color negre per apropar; al botó verd amb un guió per allunyar la imatge; o en les fletxes verdes per a mapes adjacents.


METAR-TAF: